Tompo, Russia
Current Conditions -  °F | °C
As of 10:00 PM on Sunday 25 Jan 2015 (Local Time) from UEEE Reporting Station
Haze Haze  
Wind Chill: -50°   Ceiling: 20000
Heat Index: -35°   Visibility: 3mi
Dew Point: -40°   Wind: 4mph
Humidity: 75%   Direction: 300°WNW
Pressure: 30.06"   Gusts: NA
Location:  63.91°N, 135.86°E
Report Text: UEEE 251200Z 30002MPS 5000 BR SCT100 OVC200 M37/M40 Q1018 NOSIGRMK QFE755 23490150
Loading
Personal Weather Stations






























Interactive Weather Map New forecast layout! Learn more

10-Day Weather Forecast

Advertisements
Track Severe Weather on mobile